sensor_id;sensor_type;location;lat;lon;timestamp;pressure;altitude;pressure_sealevel;temperature
41593;BMP180;28026;48.562;14.440;2023-03-03T00:00:33;93665.00;;;9.80
41593;BMP180;28026;48.562;14.440;2023-03-03T00:03:09;93664.00;;;9.80
41593;BMP180;28026;48.562;14.440;2023-03-03T00:05:45;93664.00;;;9.80
41593;BMP180;28026;48.562;14.440;2023-03-03T00:08:17;93664.00;;;9.80
41593;BMP180;28026;48.562;14.440;2023-03-03T00:10:49;93663.00;;;9.80
41593;BMP180;28026;48.562;14.440;2023-03-03T00:13:24;93670.00;;;9.80
41593;BMP180;28026;48.562;14.440;2023-03-03T00:16:38;93668.00;;;9.70
41593;BMP180;28026;48.562;14.440;2023-03-03T00:19:17;93666.00;;;9.70
41593;BMP180;28026;48.562;14.440;2023-03-03T00:21:51;93663.00;;;9.70
41593;BMP180;28026;48.562;14.440;2023-03-03T00:24:35;93672.00;;;9.60
41593;BMP180;28026;48.562;14.440;2023-03-03T00:27:34;93676.00;;;9.60
41593;BMP180;28026;48.562;14.440;2023-03-03T00:30:22;93675.00;;;9.50
41593;BMP180;28026;48.562;14.440;2023-03-03T00:32:55;93669.00;;;9.50
41593;BMP180;28026;48.562;14.440;2023-03-03T00:35:31;93677.00;;;9.50
41593;BMP180;28026;48.562;14.440;2023-03-03T00:38:16;93676.00;;;9.50
41593;BMP180;28026;48.562;14.440;2023-03-03T00:40:48;93677.00;;;9.50
41593;BMP180;28026;48.562;14.440;2023-03-03T00:43:22;93685.00;;;9.50
41593;BMP180;28026;48.562;14.440;2023-03-03T00:45:56;93688.00;;;9.50
41593;BMP180;28026;48.562;14.440;2023-03-03T00:51:32;93682.00;;;9.40
41593;BMP180;28026;48.562;14.440;2023-03-03T00:54:05;93679.00;;;9.40
41593;BMP180;28026;48.562;14.440;2023-03-03T00:56:35;93680.00;;;9.40
41593;BMP180;28026;48.562;14.440;2023-03-03T00:59:08;93672.00;;;9.40
41593;BMP180;28026;48.562;14.440;2023-03-03T01:01:39;93680.00;;;9.40
41593;BMP180;28026;48.562;14.440;2023-03-03T01:04:10;93680.00;;;9.40
41593;BMP180;28026;48.562;14.440;2023-03-03T01:06:40;93665.00;;;9.40
41593;BMP180;28026;48.562;14.440;2023-03-03T01:09:11;93675.00;;;9.40
41593;BMP180;28026;48.562;14.440;2023-03-03T01:11:42;93673.00;;;9.50
41593;BMP180;28026;48.562;14.440;2023-03-03T01:14:13;93678.00;;;9.50
41593;BMP180;28026;48.562;14.440;2023-03-03T01:16:44;93671.00;;;9.50
41593;BMP180;28026;48.562;14.440;2023-03-03T01:19:15;93674.00;;;9.40
41593;BMP180;28026;48.562;14.440;2023-03-03T01:21:46;93671.00;;;9.50
41593;BMP180;28026;48.562;14.440;2023-03-03T01:24:17;93668.00;;;9.50
41593;BMP180;28026;48.562;14.440;2023-03-03T01:26:48;93669.00;;;9.60
41593;BMP180;28026;48.562;14.440;2023-03-03T01:29:19;93671.00;;;9.60
41593;BMP180;28026;48.562;14.440;2023-03-03T01:31:50;93663.00;;;9.60
41593;BMP180;28026;48.562;14.440;2023-03-03T01:34:21;93663.00;;;9.60
41593;BMP180;28026;48.562;14.440;2023-03-03T01:36:51;93663.00;;;9.60
41593;BMP180;28026;48.562;14.440;2023-03-03T01:39:22;93663.00;;;9.70
41593;BMP180;28026;48.562;14.440;2023-03-03T01:41:53;93655.00;;;9.60
41593;BMP180;28026;48.562;14.440;2023-03-03T01:44:24;93653.00;;;9.60
41593;BMP180;28026;48.562;14.440;2023-03-03T01:47:15;93653.00;;;9.60
41593;BMP180;28026;48.562;14.440;2023-03-03T01:50:07;93671.00;;;9.60
41593;BMP180;28026;48.562;14.440;2023-03-03T01:52:45;93656.00;;;9.60
41593;BMP180;28026;48.562;14.440;2023-03-03T01:55:25;93651.00;;;9.60
41593;BMP180;28026;48.562;14.440;2023-03-03T02:00:49;93664.00;;;9.60
41593;BMP180;28026;48.562;14.440;2023-03-03T02:03:24;93670.00;;;9.60
41593;BMP180;28026;48.562;14.440;2023-03-03T02:06:06;93658.00;;;9.60
41593;BMP180;28026;48.562;14.440;2023-03-03T02:11:48;93658.00;;;9.70
41593;BMP180;28026;48.562;14.440;2023-03-03T02:14:24;93652.00;;;9.60
41593;BMP180;28026;48.562;14.440;2023-03-03T02:16:56;93651.00;;;9.60
41593;BMP180;28026;48.562;14.440;2023-03-03T02:22:54;93655.00;;;9.50
41593;BMP180;28026;48.562;14.440;2023-03-03T02:25:58;93663.00;;;9.50
41593;BMP180;28026;48.562;14.440;2023-03-03T02:28:35;93649.00;;;9.50
41593;BMP180;28026;48.562;14.440;2023-03-03T02:31:14;93654.00;;;9.60
41593;BMP180;28026;48.562;14.440;2023-03-03T02:33:51;93657.00;;;9.60
41593;BMP180;28026;48.562;14.440;2023-03-03T02:36:35;93648.00;;;9.60
41593;BMP180;28026;48.562;14.440;2023-03-03T02:39:22;93655.00;;;9.60
41593;BMP180;28026;48.562;14.440;2023-03-03T02:42:19;93653.00;;;9.60
41593;BMP180;28026;48.562;14.440;2023-03-03T02:44:56;93653.00;;;9.60
41593;BMP180;28026;48.562;14.440;2023-03-03T02:47:27;93657.00;;;9.60
41593;BMP180;28026;48.562;14.440;2023-03-03T02:49:58;93663.00;;;9.70
41593;BMP180;28026;48.562;14.440;2023-03-03T02:52:29;93665.00;;;9.70
41593;BMP180;28026;48.562;14.440;2023-03-03T02:55:00;93659.00;;;9.70
41593;BMP180;28026;48.562;14.440;2023-03-03T02:57:31;93663.00;;;9.70
41593;BMP180;28026;48.562;14.440;2023-03-03T03:00:02;93653.00;;;9.70
41593;BMP180;28026;48.562;14.440;2023-03-03T03:02:33;93653.00;;;9.60
41593;BMP180;28026;48.562;14.440;2023-03-03T03:05:04;93650.00;;;9.60
41593;BMP180;28026;48.562;14.440;2023-03-03T03:07:35;93655.00;;;9.50
41593;BMP180;28026;48.562;14.440;2023-03-03T03:10:06;93654.00;;;9.50
41593;BMP180;28026;48.562;14.440;2023-03-03T03:12:38;93656.00;;;9.50
41593;BMP180;28026;48.562;14.440;2023-03-03T03:15:09;93640.00;;;9.40
41593;BMP180;28026;48.562;14.440;2023-03-03T03:17:40;93646.00;;;9.40
41593;BMP180;28026;48.562;14.440;2023-03-03T03:20:12;93652.00;;;9.40
41593;BMP180;28026;48.562;14.440;2023-03-03T03:22:43;93640.00;;;9.30
41593;BMP180;28026;48.562;14.440;2023-03-03T03:25:14;93642.00;;;9.20
41593;BMP180;28026;48.562;14.440;2023-03-03T03:27:44;93644.00;;;9.20
41593;BMP180;28026;48.562;14.440;2023-03-03T03:30:15;93639.00;;;9.20
41593;BMP180;28026;48.562;14.440;2023-03-03T03:32:46;93641.00;;;9.10
41593;BMP180;28026;48.562;14.440;2023-03-03T03:35:17;93644.00;;;9.10
41593;BMP180;28026;48.562;14.440;2023-03-03T03:37:48;93642.00;;;9.00
41593;BMP180;28026;48.562;14.440;2023-03-03T03:40:19;93648.00;;;9.00
41593;BMP180;28026;48.562;14.440;2023-03-03T03:42:50;93654.00;;;9.00
41593;BMP180;28026;48.562;14.440;2023-03-03T03:45:21;93649.00;;;9.00
41593;BMP180;28026;48.562;14.440;2023-03-03T03:47:52;93648.00;;;9.00
41593;BMP180;28026;48.562;14.440;2023-03-03T03:50:23;93649.00;;;9.00
41593;BMP180;28026;48.562;14.440;2023-03-03T03:52:54;93650.00;;;8.90
41593;BMP180;28026;48.562;14.440;2023-03-03T03:55:25;93652.00;;;8.90
41593;BMP180;28026;48.562;14.440;2023-03-03T03:57:56;93659.00;;;8.90
41593;BMP180;28026;48.562;14.440;2023-03-03T04:00:28;93670.00;;;8.90
41593;BMP180;28026;48.562;14.440;2023-03-03T04:02:59;93663.00;;;8.80
41593;BMP180;28026;48.562;14.440;2023-03-03T04:05:30;93658.00;;;8.80
41593;BMP180;28026;48.562;14.440;2023-03-03T04:08:01;93658.00;;;8.80
41593;BMP180;28026;48.562;14.440;2023-03-03T04:10:32;93663.00;;;8.80
41593;BMP180;28026;48.562;14.440;2023-03-03T04:13:03;93672.00;;;8.80
41593;BMP180;28026;48.562;14.440;2023-03-03T04:15:34;93659.00;;;8.70
41593;BMP180;28026;48.562;14.440;2023-03-03T04:18:05;93664.00;;;8.80
41593;BMP180;28026;48.562;14.440;2023-03-03T04:20:36;93670.00;;;8.80
41593;BMP180;28026;48.562;14.440;2023-03-03T04:23:09;93658.00;;;8.80
41593;BMP180;28026;48.562;14.440;2023-03-03T04:25:40;93656.00;;;8.80
41593;BMP180;28026;48.562;14.440;2023-03-03T04:28:11;93658.00;;;8.80
41593;BMP180;28026;48.562;14.440;2023-03-03T04:30:42;93656.00;;;8.80
41593;BMP180;28026;48.562;14.440;2023-03-03T04:33:13;93664.00;;;8.90
41593;BMP180;28026;48.562;14.440;2023-03-03T04:35:44;93656.00;;;8.90
41593;BMP180;28026;48.562;14.440;2023-03-03T04:38:15;93663.00;;;8.90
41593;BMP180;28026;48.562;14.440;2023-03-03T04:40:47;93660.00;;;8.80
41593;BMP180;28026;48.562;14.440;2023-03-03T04:43:18;93659.00;;;8.80
41593;BMP180;28026;48.562;14.440;2023-03-03T04:45:49;93658.00;;;8.80
41593;BMP180;28026;48.562;14.440;2023-03-03T04:48:20;93660.00;;;8.90
41593;BMP180;28026;48.562;14.440;2023-03-03T04:50:51;93653.00;;;8.90
41593;BMP180;28026;48.562;14.440;2023-03-03T04:53:23;93658.00;;;8.90
41593;BMP180;28026;48.562;14.440;2023-03-03T04:55:54;93653.00;;;8.90
41593;BMP180;28026;48.562;14.440;2023-03-03T04:58:25;93657.00;;;8.90
41593;BMP180;28026;48.562;14.440;2023-03-03T05:00:56;93655.00;;;8.90
41593;BMP180;28026;48.562;14.440;2023-03-03T05:03:27;93657.00;;;8.90
41593;BMP180;28026;48.562;14.440;2023-03-03T05:05:58;93666.00;;;8.80
41593;BMP180;28026;48.562;14.440;2023-03-03T05:08:29;93658.00;;;8.80
41593;BMP180;28026;48.562;14.440;2023-03-03T05:11:00;93665.00;;;8.70
41593;BMP180;28026;48.562;14.440;2023-03-03T05:13:31;93671.00;;;8.70
41593;BMP180;28026;48.562;14.440;2023-03-03T05:16:02;93677.00;;;8.70
41593;BMP180;28026;48.562;14.440;2023-03-03T05:18:33;93679.00;;;8.60
41593;BMP180;28026;48.562;14.440;2023-03-03T05:21:05;93684.00;;;8.60
41593;BMP180;28026;48.562;14.440;2023-03-03T05:23:35;93688.00;;;8.60
41593;BMP180;28026;48.562;14.440;2023-03-03T05:26:06;93686.00;;;8.60
41593;BMP180;28026;48.562;14.440;2023-03-03T05:28:37;93684.00;;;8.50
41593;BMP180;28026;48.562;14.440;2023-03-03T05:31:08;93690.00;;;8.50
41593;BMP180;28026;48.562;14.440;2023-03-03T05:33:40;93686.00;;;8.50
41593;BMP180;28026;48.562;14.440;2023-03-03T05:36:11;93694.00;;;8.50
41593;BMP180;28026;48.562;14.440;2023-03-03T05:38:42;93691.00;;;8.50
41593;BMP180;28026;48.562;14.440;2023-03-03T05:41:12;93705.00;;;8.50
41593;BMP180;28026;48.562;14.440;2023-03-03T05:43:43;93708.00;;;8.50
41593;BMP180;28026;48.562;14.440;2023-03-03T05:46:14;93701.00;;;8.50
41593;BMP180;28026;48.562;14.440;2023-03-03T05:48:45;93706.00;;;8.50
41593;BMP180;28026;48.562;14.440;2023-03-03T05:51:16;93700.00;;;8.50
41593;BMP180;28026;48.562;14.440;2023-03-03T05:53:47;93704.00;;;8.50
41593;BMP180;28026;48.562;14.440;2023-03-03T05:56:18;93697.00;;;8.50
41593;BMP180;28026;48.562;14.440;2023-03-03T05:58:49;93703.00;;;8.40
41593;BMP180;28026;48.562;14.440;2023-03-03T06:01:20;93704.00;;;8.40
41593;BMP180;28026;48.562;14.440;2023-03-03T06:03:52;93708.00;;;8.40
41593;BMP180;28026;48.562;14.440;2023-03-03T06:06:23;93706.00;;;8.40
41593;BMP180;28026;48.562;14.440;2023-03-03T06:08:53;93705.00;;;8.40
41593;BMP180;28026;48.562;14.440;2023-03-03T06:11:24;93711.00;;;8.40
41593;BMP180;28026;48.562;14.440;2023-03-03T06:13:55;93717.00;;;8.50
41593;BMP180;28026;48.562;14.440;2023-03-03T06:16:26;93722.00;;;8.50
41593;BMP180;28026;48.562;14.440;2023-03-03T06:18:57;93717.00;;;8.50
41593;BMP180;28026;48.562;14.440;2023-03-03T06:21:28;93717.00;;;8.50
41593;BMP180;28026;48.562;14.440;2023-03-03T06:23:59;93723.00;;;8.60
41593;BMP180;28026;48.562;14.440;2023-03-03T06:26:31;93725.00;;;8.60
41593;BMP180;28026;48.562;14.440;2023-03-03T06:29:02;93723.00;;;8.70
41593;BMP180;28026;48.562;14.440;2023-03-03T06:31:33;93724.00;;;8.80
41593;BMP180;28026;48.562;14.440;2023-03-03T06:34:05;93739.00;;;8.80
41593;BMP180;28026;48.562;14.440;2023-03-03T06:36:36;93738.00;;;8.80
41593;BMP180;28026;48.562;14.440;2023-03-03T06:39:06;93745.00;;;8.90
41593;BMP180;28026;48.562;14.440;2023-03-03T06:41:37;93734.00;;;8.90
41593;BMP180;28026;48.562;14.440;2023-03-03T06:44:08;93742.00;;;9.00
41593;BMP180;28026;48.562;14.440;2023-03-03T06:46:41;93747.00;;;9.10
41593;BMP180;28026;48.562;14.440;2023-03-03T06:49:12;93752.00;;;9.30
41593;BMP180;28026;48.562;14.440;2023-03-03T06:51:43;93745.00;;;9.40
41593;BMP180;28026;48.562;14.440;2023-03-03T06:54:19;93746.00;;;9.60
41593;BMP180;28026;48.562;14.440;2023-03-03T06:56:58;93737.00;;;9.60
41593;BMP180;28026;48.562;14.440;2023-03-03T06:59:31;93744.00;;;9.70
41593;BMP180;28026;48.562;14.440;2023-03-03T07:02:15;93740.00;;;9.80
41593;BMP180;28026;48.562;14.440;2023-03-03T07:04:47;93747.00;;;9.90
41593;BMP180;28026;48.562;14.440;2023-03-03T07:07:22;93749.00;;;9.90
41593;BMP180;28026;48.562;14.440;2023-03-03T07:09:55;93752.00;;;10.10
41593;BMP180;28026;48.562;14.440;2023-03-03T07:12:29;93754.00;;;10.20
41593;BMP180;28026;48.562;14.440;2023-03-03T07:15:35;93755.00;;;10.30
41593;BMP180;28026;48.562;14.440;2023-03-03T07:21:35;93753.00;;;10.50
41593;BMP180;28026;48.562;14.440;2023-03-03T07:24:28;93769.00;;;10.70
41593;BMP180;28026;48.562;14.440;2023-03-03T07:29:46;93770.00;;;11.10
41593;BMP180;28026;48.562;14.440;2023-03-03T07:32:54;93775.00;;;11.30
41593;BMP180;28026;48.562;14.440;2023-03-03T07:35:42;93784.00;;;11.40
41593;BMP180;28026;48.562;14.440;2023-03-03T07:38:39;93777.00;;;11.50
41593;BMP180;28026;48.562;14.440;2023-03-03T07:41:17;93773.00;;;11.60
41593;BMP180;28026;48.562;14.440;2023-03-03T07:44:23;93766.00;;;11.70
41593;BMP180;28026;48.562;14.440;2023-03-03T07:47:28;93770.00;;;11.90
41593;BMP180;28026;48.562;14.440;2023-03-03T07:50:19;93772.00;;;12.00
41593;BMP180;28026;48.562;14.440;2023-03-03T07:52:56;93767.00;;;12.10
41593;BMP180;28026;48.562;14.440;2023-03-03T07:55:35;93764.00;;;12.30
41593;BMP180;28026;48.562;14.440;2023-03-03T08:01:31;93770.00;;;12.60
41593;BMP180;28026;48.562;14.440;2023-03-03T08:04:27;93771.00;;;12.70
41593;BMP180;28026;48.562;14.440;2023-03-03T08:07:18;93772.00;;;12.80
41593;BMP180;28026;48.562;14.440;2023-03-03T08:09:58;93780.00;;;12.80
41593;BMP180;28026;48.562;14.440;2023-03-03T08:12:40;93776.00;;;12.70
41593;BMP180;28026;48.562;14.440;2023-03-03T08:15:20;93772.00;;;12.80
41593;BMP180;28026;48.562;14.440;2023-03-03T08:17:54;93778.00;;;12.90
41593;BMP180;28026;48.562;14.440;2023-03-03T08:20:49;93784.00;;;13.10
41593;BMP180;28026;48.562;14.440;2023-03-03T08:23:22;93776.00;;;13.30
41593;BMP180;28026;48.562;14.440;2023-03-03T08:25:53;93790.00;;;13.60
41593;BMP180;28026;48.562;14.440;2023-03-03T08:28:24;93787.00;;;13.80
41593;BMP180;28026;48.562;14.440;2023-03-03T08:30:55;93783.00;;;14.00
41593;BMP180;28026;48.562;14.440;2023-03-03T08:33:26;93784.00;;;14.20
41593;BMP180;28026;48.562;14.440;2023-03-03T08:35:58;93783.00;;;14.40
41593;BMP180;28026;48.562;14.440;2023-03-03T08:38:29;93781.00;;;14.60
41593;BMP180;28026;48.562;14.440;2023-03-03T08:40:59;93788.00;;;14.70
41593;BMP180;28026;48.562;14.440;2023-03-03T08:43:31;93779.00;;;14.80
41593;BMP180;28026;48.562;14.440;2023-03-03T08:46:05;93783.00;;;15.00
41593;BMP180;28026;48.562;14.440;2023-03-03T08:48:37;93785.00;;;15.10
41593;BMP180;28026;48.562;14.440;2023-03-03T08:51:08;93783.00;;;15.20
41593;BMP180;28026;48.562;14.440;2023-03-03T08:53:39;93779.00;;;15.00
41593;BMP180;28026;48.562;14.440;2023-03-03T08:56:10;93781.00;;;14.90
41593;BMP180;28026;48.562;14.440;2023-03-03T08:58:41;93783.00;;;14.90
41593;BMP180;28026;48.562;14.440;2023-03-03T09:01:17;93783.00;;;14.90
41593;BMP180;28026;48.562;14.440;2023-03-03T09:03:48;93786.00;;;15.00
41593;BMP180;28026;48.562;14.440;2023-03-03T09:06:19;93786.00;;;15.20
41593;BMP180;28026;48.562;14.440;2023-03-03T09:08:50;93795.00;;;15.30
41593;BMP180;28026;48.562;14.440;2023-03-03T09:11:27;93800.00;;;15.40
41593;BMP180;28026;48.562;14.440;2023-03-03T09:14:11;93804.00;;;15.60
41593;BMP180;28026;48.562;14.440;2023-03-03T09:16:55;93810.00;;;16.00
41593;BMP180;28026;48.562;14.440;2023-03-03T09:19:31;93817.00;;;16.30
41593;BMP180;28026;48.562;14.440;2023-03-03T09:22:35;93824.00;;;16.50
41593;BMP180;28026;48.562;14.440;2023-03-03T09:25:20;93828.00;;;16.80
41593;BMP180;28026;48.562;14.440;2023-03-03T09:27:57;93832.00;;;17.00
41593;BMP180;28026;48.562;14.440;2023-03-03T09:30:39;93832.00;;;17.10
41593;BMP180;28026;48.562;14.440;2023-03-03T09:36:36;93837.00;;;17.30
41593;BMP180;28026;48.562;14.440;2023-03-03T09:39:24;93836.00;;;17.30
41593;BMP180;28026;48.562;14.440;2023-03-03T09:48:43;93839.00;;;17.40
41593;BMP180;28026;48.562;14.440;2023-03-03T09:52:07;93843.00;;;17.50
41593;BMP180;28026;48.562;14.440;2023-03-03T10:01:19;93840.00;;;17.60
41593;BMP180;28026;48.562;14.440;2023-03-03T10:07:54;93848.00;;;17.60
41593;BMP180;28026;48.562;14.440;2023-03-03T10:17:22;93827.00;;;18.10
41593;BMP180;28026;48.562;14.440;2023-03-03T10:39:01;93827.00;;;19.20
41593;BMP180;28026;48.562;14.440;2023-03-03T10:47:50;93830.00;;;19.70
41593;BMP180;28026;48.562;14.440;2023-03-03T10:54:40;93838.00;;;19.90
41593;BMP180;28026;48.562;14.440;2023-03-03T11:01:24;93838.00;;;20.00
41593;BMP180;28026;48.562;14.440;2023-03-03T11:14:00;93835.00;;;20.40
41593;BMP180;28026;48.562;14.440;2023-03-03T11:22:40;93836.00;;;20.60
41593;BMP180;28026;48.562;14.440;2023-03-03T11:32:20;93829.00;;;20.90
41593;BMP180;28026;48.562;14.440;2023-03-03T11:35:26;93825.00;;;20.90
41593;BMP180;28026;48.562;14.440;2023-03-03T11:42:22;93824.00;;;21.00
41593;BMP180;28026;48.562;14.440;2023-03-03T11:44:54;93818.00;;;21.00
41593;BMP180;28026;48.562;14.440;2023-03-03T11:47:34;93816.00;;;21.00
41593;BMP180;28026;48.562;14.440;2023-03-03T11:54:03;93811.00;;;21.30
41593;BMP180;28026;48.562;14.440;2023-03-03T11:56:45;93797.00;;;21.40
41593;BMP180;28026;48.562;14.440;2023-03-03T12:11:53;93790.00;;;21.90
41593;BMP180;28026;48.562;14.440;2023-03-03T12:18:30;93797.00;;;21.90
41593;BMP180;28026;48.562;14.440;2023-03-03T12:24:12;93797.00;;;22.10
41593;BMP180;28026;48.562;14.440;2023-03-03T12:30:25;93792.00;;;22.20
41593;BMP180;28026;48.562;14.440;2023-03-03T12:39:49;93786.00;;;22.30
41593;BMP180;28026;48.562;14.440;2023-03-03T12:43:16;93784.00;;;22.30
41593;BMP180;28026;48.562;14.440;2023-03-03T12:46:26;93787.00;;;22.30
41593;BMP180;28026;48.562;14.440;2023-03-03T12:49:05;93779.00;;;22.40
41593;BMP180;28026;48.562;14.440;2023-03-03T13:01:55;93772.00;;;22.70
41593;BMP180;28026;48.562;14.440;2023-03-03T13:11:35;93766.00;;;22.80
41593;BMP180;28026;48.562;14.440;2023-03-03T13:14:47;93771.00;;;22.90
41593;BMP180;28026;48.562;14.440;2023-03-03T13:17:35;93763.00;;;23.00
41593;BMP180;28026;48.562;14.440;2023-03-03T13:29:43;93766.00;;;23.10
41593;BMP180;28026;48.562;14.440;2023-03-03T13:33:07;93761.00;;;23.10
41593;BMP180;28026;48.562;14.440;2023-03-03T13:35:52;93759.00;;;23.10
41593;BMP180;28026;48.562;14.440;2023-03-03T13:38:59;93755.00;;;23.20
41593;BMP180;28026;48.562;14.440;2023-03-03T13:52:44;93743.00;;;23.70
41593;BMP180;28026;48.562;14.440;2023-03-03T13:59:00;93743.00;;;23.60
41593;BMP180;28026;48.562;14.440;2023-03-03T14:05:01;93739.00;;;23.50
41593;BMP180;28026;48.562;14.440;2023-03-03T14:08:23;93738.00;;;23.60
41593;BMP180;28026;48.562;14.440;2023-03-03T14:17:33;93739.00;;;23.60
41593;BMP180;28026;48.562;14.440;2023-03-03T14:26:11;93736.00;;;23.40
41593;BMP180;28026;48.562;14.440;2023-03-03T14:28:46;93740.00;;;23.30
41593;BMP180;28026;48.562;14.440;2023-03-03T14:31:29;93737.00;;;23.30
41593;BMP180;28026;48.562;14.440;2023-03-03T14:34:40;93744.00;;;23.20
41593;BMP180;28026;48.562;14.440;2023-03-03T14:37:42;93740.00;;;23.10
41593;BMP180;28026;48.562;14.440;2023-03-03T14:40:20;93736.00;;;23.00
41593;BMP180;28026;48.562;14.440;2023-03-03T14:43:04;93743.00;;;23.00
41593;BMP180;28026;48.562;14.440;2023-03-03T14:45:49;93742.00;;;23.00
41593;BMP180;28026;48.562;14.440;2023-03-03T14:48:24;93745.00;;;22.90
41593;BMP180;28026;48.562;14.440;2023-03-03T14:54:13;93745.00;;;22.60
41593;BMP180;28026;48.562;14.440;2023-03-03T14:57:02;93748.00;;;22.50
41593;BMP180;28026;48.562;14.440;2023-03-03T15:05:57;93745.00;;;21.70
41593;BMP180;28026;48.562;14.440;2023-03-03T15:08:36;93738.00;;;21.60
41593;BMP180;28026;48.562;14.440;2023-03-03T15:11:26;93740.00;;;21.60
41593;BMP180;28026;48.562;14.440;2023-03-03T15:14:15;93750.00;;;21.40
41593;BMP180;28026;48.562;14.440;2023-03-03T15:16:49;93750.00;;;21.20
41593;BMP180;28026;48.562;14.440;2023-03-03T15:19:36;93746.00;;;21.10
41593;BMP180;28026;48.562;14.440;2023-03-03T15:22:46;93742.00;;;21.00
41593;BMP180;28026;48.562;14.440;2023-03-03T15:35:49;93763.00;;;19.80
41593;BMP180;28026;48.562;14.440;2023-03-03T15:38:40;93762.00;;;19.50
41593;BMP180;28026;48.562;14.440;2023-03-03T15:41:24;93768.00;;;19.40
41593;BMP180;28026;48.562;14.440;2023-03-03T15:50:27;93750.00;;;19.00
41593;BMP180;28026;48.562;14.440;2023-03-03T16:04:30;93767.00;;;18.30
41593;BMP180;28026;48.562;14.440;2023-03-03T16:13:38;93774.00;;;17.90
41593;BMP180;28026;48.562;14.440;2023-03-03T16:16:46;93774.00;;;17.80
41593;BMP180;28026;48.562;14.440;2023-03-03T16:20:05;93776.00;;;17.70
41593;BMP180;28026;48.562;14.440;2023-03-03T16:29:24;93785.00;;;17.50
41593;BMP180;28026;48.562;14.440;2023-03-03T16:32:43;93785.00;;;17.30
41593;BMP180;28026;48.562;14.440;2023-03-03T16:35:23;93790.00;;;17.20
41593;BMP180;28026;48.562;14.440;2023-03-03T16:38:00;93792.00;;;17.10
41593;BMP180;28026;48.562;14.440;2023-03-03T16:41:10;93798.00;;;17.00
41593;BMP180;28026;48.562;14.440;2023-03-03T16:44:29;93807.00;;;17.00
41593;BMP180;28026;48.562;14.440;2023-03-03T16:47:21;93802.00;;;16.90
41593;BMP180;28026;48.562;14.440;2023-03-03T16:56:53;93805.00;;;16.50
41593;BMP180;28026;48.562;14.440;2023-03-03T17:03:02;93820.00;;;16.40
41593;BMP180;28026;48.562;14.440;2023-03-03T17:18:39;93839.00;;;16.00
41593;BMP180;28026;48.562;14.440;2023-03-03T17:22:10;93837.00;;;16.00
41593;BMP180;28026;48.562;14.440;2023-03-03T17:38:35;93863.00;;;15.70
41593;BMP180;28026;48.562;14.440;2023-03-03T17:41:27;93865.00;;;15.70
41593;BMP180;28026;48.562;14.440;2023-03-03T17:44:16;93861.00;;;15.60
41593;BMP180;28026;48.562;14.440;2023-03-03T17:47:07;93854.00;;;15.60
41593;BMP180;28026;48.562;14.440;2023-03-03T18:15:20;93870.00;;;14.90
41593;BMP180;28026;48.562;14.440;2023-03-03T18:18:01;93869.00;;;14.80
41593;BMP180;28026;48.562;14.440;2023-03-03T18:21:05;93871.00;;;14.80
41593;BMP180;28026;48.562;14.440;2023-03-03T18:23:46;93877.00;;;14.70
41593;BMP180;28026;48.562;14.440;2023-03-03T18:26:40;93880.00;;;14.70
41593;BMP180;28026;48.562;14.440;2023-03-03T18:29:28;93876.00;;;14.70
41593;BMP180;28026;48.562;14.440;2023-03-03T18:32:16;93877.00;;;14.60
41593;BMP180;28026;48.562;14.440;2023-03-03T18:41:08;93885.00;;;14.30
41593;BMP180;28026;48.562;14.440;2023-03-03T18:43:55;93882.00;;;14.20
41593;BMP180;28026;48.562;14.440;2023-03-03T18:49:07;93880.00;;;14.10
41593;BMP180;28026;48.562;14.440;2023-03-03T19:04:55;93883.00;;;13.70
41593;BMP180;28026;48.562;14.440;2023-03-03T19:07:51;93881.00;;;13.70
41593;BMP180;28026;48.562;14.440;2023-03-03T19:16:26;93871.00;;;13.50
41593;BMP180;28026;48.562;14.440;2023-03-03T19:19:07;93873.00;;;13.50
41593;BMP180;28026;48.562;14.440;2023-03-03T19:21:46;93872.00;;;13.40
41593;BMP180;28026;48.562;14.440;2023-03-03T19:24:32;93876.00;;;13.40
41593;BMP180;28026;48.562;14.440;2023-03-03T19:27:27;93875.00;;;13.40
41593;BMP180;28026;48.562;14.440;2023-03-03T19:36:49;93877.00;;;13.30
41593;BMP180;28026;48.562;14.440;2023-03-03T19:40:18;93891.00;;;13.30
41593;BMP180;28026;48.562;14.440;2023-03-03T19:46:40;93893.00;;;13.20
41593;BMP180;28026;48.562;14.440;2023-03-03T19:49:44;93896.00;;;13.10
41593;BMP180;28026;48.562;14.440;2023-03-03T19:52:47;93883.00;;;13.00
41593;BMP180;28026;48.562;14.440;2023-03-03T19:55:26;93878.00;;;13.00
41593;BMP180;28026;48.562;14.440;2023-03-03T19:58:25;93881.00;;;12.90
41593;BMP180;28026;48.562;14.440;2023-03-03T20:07:55;93877.00;;;12.60
41593;BMP180;28026;48.562;14.440;2023-03-03T20:11:07;93878.00;;;12.50
41593;BMP180;28026;48.562;14.440;2023-03-03T20:14:17;93883.00;;;12.50
41593;BMP180;28026;48.562;14.440;2023-03-03T20:24:01;93881.00;;;12.30
41593;BMP180;28026;48.562;14.440;2023-03-03T20:27:15;93874.00;;;12.20
41593;BMP180;28026;48.562;14.440;2023-03-03T20:35:56;93874.00;;;12.00
41593;BMP180;28026;48.562;14.440;2023-03-03T20:55:13;93892.00;;;11.70
41593;BMP180;28026;48.562;14.440;2023-03-03T21:00:51;93891.00;;;11.50
41593;BMP180;28026;48.562;14.440;2023-03-03T21:03:33;93892.00;;;11.50
41593;BMP180;28026;48.562;14.440;2023-03-03T21:06:15;93892.00;;;11.60
41593;BMP180;28026;48.562;14.440;2023-03-03T21:08:55;93891.00;;;11.60
41593;BMP180;28026;48.562;14.440;2023-03-03T21:14:18;93891.00;;;11.50
41593;BMP180;28026;48.562;14.440;2023-03-03T21:16:54;93896.00;;;11.50
41593;BMP180;28026;48.562;14.440;2023-03-03T21:19:30;93891.00;;;11.40
41593;BMP180;28026;48.562;14.440;2023-03-03T21:22:03;93887.00;;;11.40
41593;BMP180;28026;48.562;14.440;2023-03-03T21:24:55;93888.00;;;11.40
41593;BMP180;28026;48.562;14.440;2023-03-03T21:27:32;93890.00;;;11.40
41593;BMP180;28026;48.562;14.440;2023-03-03T21:30:15;93884.00;;;11.40
41593;BMP180;28026;48.562;14.440;2023-03-03T21:32:48;93878.00;;;11.30
41593;BMP180;28026;48.562;14.440;2023-03-03T21:35:21;93879.00;;;11.30
41593;BMP180;28026;48.562;14.440;2023-03-03T21:37:55;93875.00;;;11.30
41593;BMP180;28026;48.562;14.440;2023-03-03T21:40:29;93873.00;;;11.20
41593;BMP180;28026;48.562;14.440;2023-03-03T21:43:00;93869.00;;;11.20
41593;BMP180;28026;48.562;14.440;2023-03-03T21:45:31;93873.00;;;11.20